Nearby METAR Reports

 

KOXC - Oxford/Waterbury, Connecticut, USA
Distance from station: SE 8mi, 12km
Updated: Tue, 31-Jan-2023 11:51pm EST
Overcast
Overcast
 Wind from N
Wind: N 7 mph , 11 km/h
Temperature: 25°F , -4°C
Wind Chill: 17°F , -8°C
Dew Point: 12°F , -11°C
Humidity: 59%
Barometer: 30.21 inHg , 1023 hPa
Clouds: Overcast
Visibility: 10 miles , 16 km
Cloud details: Overcast 4100 ft
2023/02/01 04:51 KOXC 010451Z AUTO 01006KT 10SM OVC041 M04/M11 A3021 RMK AO2 SLP251 T10441106 400441050 FZRANO
KDXR - Danbury, Connecticut, USA
Distance from station: SW 19mi, 30km
Updated: Tue, 31-Jan-2023 11:53pm EST
Overcast
Overcast
 Wind from NNE
Wind: NNE 9 mph , 15 km/h
Temperature: 27°F , -3°C
Wind Chill: 18°F , -8°C
Dew Point: 10°F , -12°C
Humidity: 50%
Barometer: 30.23 inHg , 1023.7 hPa
Clouds: Overcast
Visibility: 10 miles , 16 km
Cloud details: Overcast 4200 ft
2023/02/01 04:53 KDXR 010453Z AUTO 02008KT 10SM OVC042 M03/M12 A3023 RMK AO2 SLP242 T10281122 400501028
 
KMMK - Meriden, Connecticut, USA
Distance from station: E 20mi, 33km
Updated: Tue, 31-Jan-2023 11:53pm EST
Mostly cloudy
Mostly cloudy
 Wind from NNE
Wind: NNE 10 mph , 17 km/h
Temperature: 27°F , -3°C
Wind Chill: 18°F , -8°C
Dew Point: 10°F , -12°C
Humidity: 50%
Barometer: 30.25 inHg , 1024.4 hPa
Clouds: Mostly cloudy
Visibility: 10 miles , 16 km
Cloud details: Mostly cloudy 4900 ft
2023/02/01 04:53 KMMK 010453Z AUTO 02009KT 10SM BKN049 M03/M12 A3025 RMK AO2 SLP244 T10281117 400561028
KBDR - Bridgeport, Connecticut, USA
Distance from station: S 27mi, 44km
Updated: Tue, 31-Jan-2023 11:52pm EST
Overcast
Overcast
 Wind from NE
Wind: NE 10 mph , 17 km/h
Temperature: 28°F , -2°C
Wind Chill: 19°F , -7°C
Dew Point: 12°F , -11°C
Humidity: 51%
Barometer: 30.24 inHg , 1024 hPa
Clouds: Overcast
Visibility: 10 miles , 16 km
Cloud details: Mostly cloudy 4800 ft
Overcast 6000 ft
2023/02/01 04:52 KBDR 010452Z AUTO 04009KT 10SM BKN048 OVC060 M02/M11 A3024 RMK AO2 SLP240 T10171106 400561017
 
KHVN - New Haven/Tweed, Connecticut, USA
Distance from station: SE 27mi, 44km
Updated: Tue, 31-Jan-2023 11:53pm EST
Overcast
Overcast
 Wind from NE
Wind: NE 12 mph , 19 km/h
Temperature: 30°F , -1°C
Wind Chill: 20°F , -7°C
Dew Point: 14°F , -10°C
Humidity: 51%
Barometer: 30.24 inHg , 1024 hPa
Clouds: Overcast
Visibility: 10 miles , 16 km
Cloud details: Overcast 6000 ft
2023/02/01 04:53 KHVN 010453Z AUTO 04010KT 10SM OVC060 M01/M10 A3024 RMK AO2 SLP238 T10111100 400611011
KHFD - Hartford/Brainar, Connecticut, USA
Distance from station: ENE 32mi, 52km
Updated: Tue, 31-Jan-2023 11:53pm EST
Overcast
Overcast
 Wind from N
Wind: N 9 mph , 15 km/h
Temperature: 28°F , -2°C
Wind Chill: 19°F , -7°C
Dew Point: 10°F , -12°C
Humidity: 47%
Barometer: 30.27 inHg , 1025.1 hPa
Clouds: Overcast
Visibility: 10 miles , 16 km
Cloud details: Overcast 5000 ft
2023/02/01 04:53 KHFD 010453Z 01008KT 10SM OVC050 M02/M12 A3027 RMK AO2 SLP249 T10221122 400611028
 
KPOU - Poughkeepsie, New York, USA
Distance from station: W 35mi, 56km
Updated: Tue, 31-Jan-2023 11:53pm EST
Clear
Clear
 Wind from NNE
Wind: NNE 7 mph , 11 km/h
Temperature: 25°F , -4°C
Wind Chill: 17°F , -8°C
Dew Point: 10°F , -12°C
Humidity: 54%
Barometer: 30.25 inHg , 1024.4 hPa
Clouds: Clear
Visibility: 10 miles , 16 km
2023/02/01 04:53 KPOU 010453Z AUTO 03006KT 10SM CLR M04/M12 A3025 RMK AO2 SLP241 T10441117 400281044
KBDL - Windsor Locks, Connecticut, USA
Distance from station: NE 38mi, 62km
Updated: Tue, 31-Jan-2023 11:51pm EST
Mostly cloudy
Mostly cloudy
 Wind from NNE
Wind: NNE 5 mph , 7 km/h
Temperature: 25°F , -4°C
Wind Chill: 19°F , -7°C
Dew Point: 10°F , -12°C
Humidity: 54%
Barometer: 30.26 inHg , 1024.7 hPa
Clouds: Mostly cloudy
Visibility: 10 miles , 16 km
Cloud details: Few Clouds 5000 ft
Mostly cloudy 14000 ft
Mostly cloudy 19000 ft
2023/02/01 04:51 KBDL 010451Z 02004KT 10SM FEW050 BKN140 BKN190 M04/M12 A3026 RMK AO2 SLP248 T10391122 400391044
 
KSNC - Chester, Connecticut, USA
Distance from station: ESE 39mi, 63km
Updated: Wed, 01-Feb-2023 12:35am EST
Overcast
Overcast
 Wind from NNE
Wind: NNE 6 mph , 9 km/h
Barometer: 30.20 inHg , 1022.7 hPa
Clouds: Overcast
Visibility: 10 miles , 16 km
Cloud details: Partly cloudy 4100 ft
Overcast 6000 ft
2023/02/01 05:35 KSNC 010535Z AUTO 03005KT 10SM SCT041 OVC060 A3020 RMK AO2
KHPN - White Plains, New York, USA
Distance from station: SW 42mi, 67km
Updated: Tue, 31-Jan-2023 11:56pm EST
Overcast
Overcast
 Wind from N
Wind: N 6 mph , 9 km/h
Temperature: 27°F , -3°C
Wind Chill: 20°F , -7°C
Dew Point: 12°F , -11°C
Humidity: 54%
Barometer: 30.20 inHg , 1022.7 hPa
Clouds: Overcast
Visibility: 10 miles , 16 km
Cloud details: Mostly cloudy 3800 ft
Overcast 5500 ft
2023/02/01 04:56 KHPN 010456Z 01005KT 10SM BKN038 OVC055 M03/M11 A3020 RMK AO2 SLP234 T10281111 400781028
 
KSWF - Newburgh/Stewart, New York, USA
Distance from station: W 45mi, 72km
Updated: Wed, 01-Feb-2023 12:45am EST
Overcast
Overcast
 Wind from ENE
Wind: ENE 12 mph , 19 km/h
Temperature: 23°F , -5°C
Wind Chill: 11°F , -12°C
Dew Point: 12°F , -11°C
Humidity: 63%
Barometer: 30.20 inHg , 1022.7 hPa
Clouds: Overcast
Visibility: 10 miles , 16 km
Cloud details: Overcast 8000 ft
2023/02/01 05:45 KSWF 010545Z 07010KT 10SM OVC080 M05/M11 A3020
KBAF - Westfield, Massachusetts, USA
Distance from station: NNE 50mi, 80km
Updated: Tue, 31-Jan-2023 11:53pm EST
Clear
Clear
 Wind from N
Wind: N 7 mph , 11 km/h
Temperature: 23°F , -5°C
Wind Chill: 15°F , -9°C
Dew Point: 10°F , -12°C
Humidity: 58%
Barometer: 30.25 inHg , 1024.4 hPa
Clouds: Clear
Visibility: 10 miles , 16 km
2023/02/01 04:53 KBAF 010453Z 36006KT 10SM CLR M05/M12 A3025 RMK AO2 SLP251 T10501122 400281056